TAM9560 SAEZ-SAZS
Flight info
| Callsign | TAM9560 |
|---|---|
| Flight time | 1h 56m |
| Altitude | 34000 |
| Route | TORUL1A TORUL UT654 ORERA ORERA2Q |
| Aircraft | A321/M-SDE3FGHIRWY/LB1 |
Departure
| Time | 2026-04-25 01:26 |
|---|---|
| Airport | Ezeiza International Airport - Ministro Pistarini (SAEZ) |
Arrival
| Time | 2026-04-25 03:22 |
|---|---|
| Airport | Teniente Luis Candelaria International Airport (SAZS) |
| Time | Latitude | Longitude | Altitude | Speed | Heading |
|---|---|---|---|---|---|
| 2026-04-25 01:19 | -34.81754 | -58.54356 | 73 ft | 0 kts | 276° |
| 2026-04-25 01:21 | -34.81754 | -58.54364 | 67 ft | 5 kts | 270° |
| 2026-04-25 01:21 | -34.81757 | -58.54431 | 73 ft | 9 kts | 267° |
| 2026-04-25 01:22 | -34.81756 | -58.54506 | 73 ft | 9 kts | 272° |
| 2026-04-25 01:22 | -34.81761 | -58.54589 | 73 ft | 10 kts | 258° |
| 2026-04-25 01:22 | -34.81777 | -58.54674 | 73 ft | 11 kts | 261° |
| 2026-04-25 01:22 | -34.81777 | -58.54768 | 66 ft | 11 kts | 277° |
| 2026-04-25 01:23 | -34.81761 | -58.54865 | 67 ft | 12 kts | 283° |
| 2026-04-25 01:23 | -34.81743 | -58.54969 | 73 ft | 13 kts | 280° |
| 2026-04-25 01:23 | -34.81725 | -58.55077 | 73 ft | 13 kts | 285° |
| 2026-04-25 01:23 | -34.81703 | -58.55190 | 66 ft | 14 kts | 281° |
| 2026-04-25 01:24 | -34.81701 | -58.55283 | 71 ft | 11 kts | 256° |
| 2026-04-25 01:24 | -34.81752 | -58.55342 | 71 ft | 10 kts | 198° |
| 2026-04-25 01:24 | -34.81767 | -58.55345 | 66 ft | 1 kts | 185° |
| 2026-04-25 01:24 | -34.81781 | -58.55343 | 66 ft | 3 kts | 173° |
| 2026-04-25 01:25 | -34.81813 | -58.55332 | 70 ft | 10 kts | 158° |
| 2026-04-25 01:25 | -34.81878 | -58.55272 | 71 ft | 12 kts | 129° |
| 2026-04-25 01:25 | -34.81922 | -58.55169 | 72 ft | 22 kts | 109° |
| 2026-04-25 01:25 | -34.82031 | -58.54631 | 71 ft | 106 kts | 102° |
| 2026-04-25 01:26 | -34.82238 | -58.53481 | 76 ft | 169 kts | 102° |
| 2026-04-25 01:26 | -34.82499 | -58.51987 | 666 ft | 181 kts | 101° |
| 2026-04-25 01:26 | -34.82735 | -58.50558 | 1408 ft | 166 kts | 98° |
| 2026-04-25 01:26 | -34.82936 | -58.49208 | 2014 ft | 158 kts | 96° |
| 2026-04-25 01:27 | -34.83097 | -58.47899 | 2511 ft | 155 kts | 94° |
| 2026-04-25 01:27 | -34.83229 | -58.46601 | 2952 ft | 157 kts | 96° |
| 2026-04-25 01:27 | -34.83815 | -58.45410 | 3148 ft | 178 kts | 146° |
| 2026-04-25 01:28 | -34.86273 | -58.43869 | 3424 ft | 220 kts | 153° |
| 2026-04-25 01:28 | -34.87506 | -58.42718 | 3525 ft | 238 kts | 130° |
| 2026-04-25 01:28 | -34.88658 | -58.41154 | 3710 ft | 259 kts | 140° |
| 2026-04-25 01:28 | -34.90254 | -58.40002 | 3994 ft | 273 kts | 161° |
| 2026-04-25 01:29 | -34.92143 | -58.39612 | 4275 ft | 274 kts | 183° |
| 2026-04-25 01:29 | -34.93979 | -58.40059 | 4549 ft | 273 kts | 204° |
| 2026-04-25 01:29 | -34.95595 | -58.41289 | 4831 ft | 271 kts | 225° |
| 2026-04-25 01:29 | -34.96744 | -58.43087 | 5103 ft | 269 kts | 242° |
| 2026-04-25 01:30 | -34.97594 | -58.45081 | 5367 ft | 269 kts | 247° |
| 2026-04-25 01:30 | -34.98276 | -58.47204 | 5639 ft | 269 kts | 253° |
| 2026-04-25 01:30 | -34.98757 | -58.49401 | 5922 ft | 268 kts | 259° |
| 2026-04-25 01:30 | -34.99030 | -58.51641 | 6196 ft | 267 kts | 265° |
| 2026-04-25 01:31 | -34.99151 | -58.53917 | 6476 ft | 268 kts | 267° |
| 2026-04-25 01:31 | -34.99263 | -58.56185 | 6736 ft | 269 kts | 267° |
| 2026-04-25 01:31 | -34.99375 | -58.58468 | 7004 ft | 270 kts | 266° |
| 2026-04-25 01:31 | -34.99488 | -58.60749 | 7271 ft | 270 kts | 266° |
| 2026-04-25 01:32 | -34.99603 | -58.63043 | 7535 ft | 271 kts | 266° |
| 2026-04-25 01:32 | -34.99716 | -58.65345 | 7807 ft | 272 kts | 266° |
| 2026-04-25 01:32 | -34.99830 | -58.67661 | 8081 ft | 273 kts | 266° |
| 2026-04-25 01:32 | -34.99944 | -58.69953 | 8354 ft | 274 kts | 266° |
| 2026-04-25 01:33 | -35.00058 | -58.72278 | 8633 ft | 275 kts | 266° |
| 2026-04-25 01:33 | -35.00172 | -58.74618 | 8914 ft | 276 kts | 266° |
| 2026-04-25 01:33 | -35.00287 | -58.76964 | 9198 ft | 277 kts | 266° |
| 2026-04-25 01:33 | -35.00400 | -58.79309 | 9483 ft | 278 kts | 266° |
| 2026-04-25 01:34 | -35.00653 | -58.81657 | 9775 ft | 279 kts | 257° |
| 2026-04-25 01:34 | -35.01207 | -58.83928 | 10053 ft | 280 kts | 249° |
| 2026-04-25 01:34 | -35.02064 | -58.86112 | 10321 ft | 293 kts | 240° |
| 2026-04-25 01:34 | -35.03249 | -58.88220 | 10576 ft | 309 kts | 234° |
| 2026-04-25 01:35 | -35.04570 | -58.90367 | 10853 ft | 324 kts | 234° |
| 2026-04-25 01:35 | -35.05944 | -58.92622 | 11124 ft | 338 kts | 234° |
| 2026-04-25 01:35 | -35.07371 | -58.94974 | 11391 ft | 351 kts | 234° |
| 2026-04-25 01:35 | -35.08838 | -58.97393 | 11668 ft | 357 kts | 234° |
| 2026-04-25 01:36 | -35.10330 | -58.99852 | 12214 ft | 361 kts | 235° |
| 2026-04-25 01:36 | -35.11809 | -59.02288 | 12818 ft | 363 kts | 235° |
| 2026-04-25 01:36 | -35.13314 | -59.04770 | 13457 ft | 364 kts | 235° |
| 2026-04-25 01:36 | -35.14829 | -59.07270 | 14055 ft | 366 kts | 235° |
| 2026-04-25 01:37 | -35.16346 | -59.09776 | 14598 ft | 368 kts | 236° |
| 2026-04-25 01:37 | -35.17871 | -59.12299 | 15146 ft | 371 kts | 236° |
| 2026-04-25 01:37 | -35.19408 | -59.14846 | 15689 ft | 373 kts | 236° |
| 2026-04-25 01:37 | -35.20950 | -59.17415 | 16245 ft | 375 kts | 237° |
| 2026-04-25 01:38 | -35.22475 | -59.20022 | 16784 ft | 378 kts | 237° |
| 2026-04-25 01:38 | -35.23992 | -59.22666 | 17336 ft | 380 kts | 238° |
| 2026-04-25 01:38 | -35.25506 | -59.25327 | 17867 ft | 382 kts | 238° |
| 2026-04-25 01:38 | -35.27035 | -59.28019 | 18396 ft | 385 kts | 238° |
| 2026-04-25 01:39 | -35.28569 | -59.30711 | 18849 ft | 387 kts | 238° |
| 2026-04-25 01:39 | -35.30114 | -59.33421 | 19311 ft | 389 kts | 238° |
| 2026-04-25 01:39 | -35.31666 | -59.36140 | 19767 ft | 391 kts | 238° |
| 2026-04-25 01:39 | -35.33230 | -59.38880 | 20214 ft | 393 kts | 238° |
| 2026-04-25 01:40 | -35.34800 | -59.41626 | 20653 ft | 395 kts | 238° |
| 2026-04-25 01:40 | -35.36379 | -59.44384 | 21083 ft | 397 kts | 238° |
| 2026-04-25 01:40 | -35.37959 | -59.47115 | 21509 ft | 399 kts | 238° |
| 2026-04-25 01:40 | -35.39582 | -59.49883 | 21921 ft | 401 kts | 238° |
| 2026-04-25 01:41 | -35.41222 | -59.52658 | 22337 ft | 403 kts | 238° |
| 2026-04-25 01:41 | -35.42870 | -59.55445 | 22737 ft | 404 kts | 238° |
| 2026-04-25 01:41 | -35.44525 | -59.58253 | 23133 ft | 406 kts | 238° |
| 2026-04-25 01:41 | -35.46178 | -59.61068 | 23544 ft | 408 kts | 238° |
| 2026-04-25 01:42 | -35.47834 | -59.63902 | 23883 ft | 410 kts | 239° |
| 2026-04-25 01:42 | -35.49497 | -59.66759 | 24215 ft | 411 kts | 239° |
| 2026-04-25 01:42 | -35.51163 | -59.69619 | 24530 ft | 413 kts | 239° |
| 2026-04-25 01:42 | -35.52836 | -59.72491 | 24872 ft | 415 kts | 239° |
| 2026-04-25 01:43 | -35.54514 | -59.75371 | 25188 ft | 416 kts | 239° |
| 2026-04-25 01:43 | -35.56206 | -59.78272 | 25501 ft | 418 kts | 239° |
| 2026-04-25 01:43 | -35.57899 | -59.81185 | 25807 ft | 419 kts | 239° |
| 2026-04-25 01:43 | -35.59598 | -59.84111 | 26103 ft | 421 kts | 239° |
| 2026-04-25 01:44 | -35.61299 | -59.87051 | 26393 ft | 423 kts | 239° |
| 2026-04-25 01:44 | -35.62980 | -59.89962 | 26701 ft | 424 kts | 239° |
| 2026-04-25 01:44 | -35.64690 | -59.92921 | 27008 ft | 425 kts | 239° |
| 2026-04-25 01:44 | -35.66430 | -59.95929 | 27308 ft | 427 kts | 239° |
| 2026-04-25 01:45 | -35.68133 | -59.98867 | 27614 ft | 429 kts | 240° |
| 2026-04-25 01:45 | -35.69883 | -60.01896 | 27904 ft | 430 kts | 240° |
| 2026-04-25 01:45 | -35.71597 | -60.04864 | 28243 ft | 430 kts | 240° |
| 2026-04-25 01:45 | -35.73328 | -60.07862 | 28672 ft | 428 kts | 240° |
| 2026-04-25 01:46 | -35.75049 | -60.10847 | 29084 ft | 427 kts | 240° |
| 2026-04-25 01:46 | -35.76767 | -60.13828 | 29495 ft | 426 kts | 240° |
| 2026-04-25 01:46 | -35.78476 | -60.16792 | 29911 ft | 424 kts | 240° |
| 2026-04-25 01:46 | -35.80183 | -60.19757 | 30317 ft | 422 kts | 240° |
| 2026-04-25 01:47 | -35.81876 | -60.22700 | 30682 ft | 420 kts | 240° |
| 2026-04-25 01:47 | -35.83559 | -60.25630 | 31047 ft | 418 kts | 240° |
| 2026-04-25 01:47 | -35.85232 | -60.28549 | 31418 ft | 415 kts | 241° |
| 2026-04-25 01:47 | -35.86895 | -60.31449 | 31776 ft | 413 kts | 241° |
| 2026-04-25 01:48 | -35.88551 | -60.34344 | 32135 ft | 411 kts | 241° |
| 2026-04-25 01:48 | -35.90195 | -60.37221 | 32486 ft | 409 kts | 241° |
| 2026-04-25 01:48 | -35.91833 | -60.40088 | 32826 ft | 407 kts | 241° |
| 2026-04-25 01:48 | -35.93463 | -60.42942 | 33200 ft | 406 kts | 241° |
| 2026-04-25 01:49 | -35.95084 | -60.45782 | 33515 ft | 404 kts | 241° |
| 2026-04-25 01:49 | -35.96684 | -60.48594 | 33817 ft | 404 kts | 241° |
| 2026-04-25 01:49 | -35.98296 | -60.51429 | 34010 ft | 404 kts | 241° |
| 2026-04-25 01:49 | -35.99912 | -60.54271 | 34051 ft | 404 kts | 241° |
| 2026-04-25 01:50 | -36.03146 | -60.59955 | 34060 ft | 404 kts | 241° |
| 2026-04-25 01:50 | -36.06364 | -60.65633 | 34060 ft | 403 kts | 241° |
| 2026-04-25 01:51 | -36.09584 | -60.71317 | 34060 ft | 403 kts | 241° |
| 2026-04-25 01:51 | -36.12261 | -60.76042 | 34068 ft | 403 kts | 241° |
| 2026-04-25 01:52 | -36.16007 | -60.82715 | 34058 ft | 404 kts | 241° |
| 2026-04-25 01:52 | -36.19204 | -60.88448 | 34064 ft | 405 kts | 241° |
| 2026-04-25 01:53 | -36.22412 | -60.94182 | 34058 ft | 405 kts | 241° |
| 2026-04-25 01:53 | -36.25596 | -60.99891 | 34060 ft | 405 kts | 241° |
| 2026-04-25 01:54 | -36.28283 | -61.04712 | 34072 ft | 406 kts | 241° |
| 2026-04-25 01:54 | -36.31468 | -61.10440 | 34067 ft | 406 kts | 241° |
| 2026-04-25 01:55 | -36.34678 | -61.16209 | 34094 ft | 407 kts | 241° |
| 2026-04-25 01:55 | -36.37889 | -61.21998 | 34097 ft | 407 kts | 241° |
| 2026-04-25 01:56 | -36.41100 | -61.27802 | 34081 ft | 408 kts | 241° |
| 2026-04-25 01:56 | -36.44305 | -61.33602 | 34083 ft | 408 kts | 241° |
| 2026-04-25 01:57 | -36.49103 | -61.42321 | 34090 ft | 407 kts | 241° |
| 2026-04-25 01:58 | -36.52296 | -61.48129 | 34089 ft | 406 kts | 241° |
| 2026-04-25 01:58 | -36.55482 | -61.53928 | 34087 ft | 406 kts | 241° |
| 2026-04-25 01:59 | -36.58662 | -61.59735 | 34087 ft | 406 kts | 241° |
| 2026-04-25 01:59 | -36.61844 | -61.65558 | 34087 ft | 406 kts | 241° |
| 2026-04-25 02:00 | -36.65022 | -61.71365 | 34089 ft | 406 kts | 241° |
| 2026-04-25 02:00 | -36.68192 | -61.77181 | 34091 ft | 406 kts | 241° |
| 2026-04-25 02:01 | -36.71367 | -61.83010 | 34092 ft | 406 kts | 241° |
| 2026-04-25 02:01 | -36.74537 | -61.88839 | 34093 ft | 406 kts | 241° |
| 2026-04-25 02:02 | -36.77695 | -61.94673 | 34097 ft | 405 kts | 241° |
| 2026-04-25 02:02 | -36.80825 | -62.00456 | 34088 ft | 405 kts | 241° |
| 2026-04-25 02:03 | -36.83996 | -62.06330 | 34089 ft | 405 kts | 241° |
| 2026-04-25 02:03 | -36.87128 | -62.12137 | 34091 ft | 406 kts | 241° |
| 2026-04-25 02:04 | -36.90281 | -62.17984 | 34096 ft | 406 kts | 241° |
| 2026-04-25 02:04 | -36.93431 | -62.23847 | 34099 ft | 406 kts | 241° |
| 2026-04-25 02:05 | -36.96586 | -62.29720 | 34096 ft | 406 kts | 241° |
| 2026-04-25 02:05 | -36.99730 | -62.35589 | 34096 ft | 407 kts | 241° |
| 2026-04-25 02:06 | -37.02875 | -62.41476 | 34102 ft | 407 kts | 241° |
| 2026-04-25 02:06 | -37.06022 | -62.47372 | 34102 ft | 407 kts | 241° |
| 2026-04-25 02:07 | -37.09167 | -62.53268 | 34115 ft | 407 kts | 241° |
| 2026-04-25 02:07 | -37.12317 | -62.59176 | 34108 ft | 407 kts | 241° |
| 2026-04-25 02:08 | -37.15459 | -62.65087 | 34107 ft | 407 kts | 241° |
| 2026-04-25 02:08 | -37.18580 | -62.70979 | 34121 ft | 408 kts | 241° |
| 2026-04-25 02:09 | -37.21712 | -62.76915 | 34111 ft | 408 kts | 241° |
| 2026-04-25 02:09 | -37.24873 | -62.82902 | 34105 ft | 409 kts | 240° |
| 2026-04-25 02:10 | -37.28003 | -62.88820 | 34099 ft | 409 kts | 240° |
| 2026-04-25 02:10 | -37.31152 | -62.94785 | 34097 ft | 410 kts | 241° |
| 2026-04-25 02:11 | -37.34285 | -63.00764 | 34092 ft | 410 kts | 241° |
| 2026-04-25 02:11 | -37.37428 | -63.06755 | 34091 ft | 410 kts | 240° |
| 2026-04-25 02:12 | -37.40579 | -63.12744 | 34109 ft | 411 kts | 240° |
| 2026-04-25 02:12 | -37.43727 | -63.18736 | 34116 ft | 411 kts | 240° |
| 2026-04-25 02:13 | -37.46872 | -63.24743 | 34105 ft | 411 kts | 240° |
| 2026-04-25 02:13 | -37.50020 | -63.30755 | 34102 ft | 411 kts | 240° |
| 2026-04-25 02:14 | -37.53164 | -63.36773 | 34110 ft | 411 kts | 240° |
| 2026-04-25 02:14 | -37.56306 | -63.42805 | 34108 ft | 412 kts | 240° |
| 2026-04-25 02:15 | -37.59444 | -63.48845 | 34122 ft | 411 kts | 240° |
| 2026-04-25 02:15 | -37.62565 | -63.54875 | 34117 ft | 411 kts | 240° |
| 2026-04-25 02:16 | -37.65691 | -63.60920 | 34113 ft | 411 kts | 240° |
| 2026-04-25 02:16 | -37.68822 | -63.66970 | 34113 ft | 411 kts | 240° |
| 2026-04-25 02:17 | -37.71943 | -63.73011 | 34111 ft | 411 kts | 240° |
| 2026-04-25 02:17 | -37.75061 | -63.79055 | 34118 ft | 411 kts | 240° |
| 2026-04-25 02:18 | -37.78157 | -63.85062 | 34123 ft | 411 kts | 240° |
| 2026-04-25 02:18 | -37.81282 | -63.91158 | 34122 ft | 410 kts | 240° |
| 2026-04-25 02:19 | -37.84380 | -63.97213 | 34120 ft | 410 kts | 240° |
| 2026-04-25 02:19 | -37.87459 | -64.03232 | 34121 ft | 410 kts | 240° |
| 2026-04-25 02:20 | -37.90557 | -64.09299 | 34123 ft | 409 kts | 240° |
| 2026-04-25 02:20 | -37.93643 | -64.15351 | 34125 ft | 409 kts | 240° |
| 2026-04-25 02:21 | -37.96724 | -64.21409 | 34124 ft | 409 kts | 240° |
| 2026-04-25 02:21 | -37.99799 | -64.27486 | 34136 ft | 409 kts | 240° |
| 2026-04-25 02:22 | -38.02877 | -64.33548 | 34135 ft | 409 kts | 240° |
| 2026-04-25 02:22 | -38.05955 | -64.39618 | 34132 ft | 409 kts | 241° |
| 2026-04-25 02:23 | -38.09013 | -64.45700 | 34129 ft | 409 kts | 241° |
| 2026-04-25 02:23 | -38.12073 | -64.51782 | 34130 ft | 409 kts | 241° |
| 2026-04-25 02:24 | -38.15127 | -64.57865 | 34125 ft | 408 kts | 241° |
| 2026-04-25 02:24 | -38.18174 | -64.63952 | 34127 ft | 408 kts | 241° |
| 2026-04-25 02:25 | -38.21259 | -64.70137 | 34114 ft | 419 kts | 241° |
| 2026-04-25 02:25 | -38.24399 | -64.76423 | 34114 ft | 422 kts | 241° |
| 2026-04-25 02:26 | -38.27547 | -64.82733 | 34114 ft | 423 kts | 241° |
| 2026-04-25 02:26 | -38.30697 | -64.89062 | 34114 ft | 423 kts | 241° |
| 2026-04-25 02:27 | -38.33839 | -64.95395 | 34117 ft | 423 kts | 241° |
| 2026-04-25 02:27 | -38.36962 | -65.01694 | 34131 ft | 423 kts | 241° |
| 2026-04-25 02:28 | -38.40101 | -65.08047 | 34137 ft | 423 kts | 241° |
| 2026-04-25 02:28 | -38.43228 | -65.14403 | 34139 ft | 423 kts | 242° |
| 2026-04-25 02:29 | -38.46359 | -65.20775 | 34136 ft | 423 kts | 242° |
| 2026-04-25 02:29 | -38.49481 | -65.27134 | 34134 ft | 423 kts | 242° |
| 2026-04-25 02:30 | -38.52601 | -65.33496 | 34146 ft | 422 kts | 242° |
| 2026-04-25 02:30 | -38.55715 | -65.39857 | 34147 ft | 422 kts | 242° |
| 2026-04-25 02:31 | -38.58820 | -65.46209 | 34142 ft | 421 kts | 242° |
| 2026-04-25 02:31 | -38.61917 | -65.52563 | 34136 ft | 421 kts | 242° |
| 2026-04-25 02:32 | -38.65006 | -65.58923 | 34138 ft | 421 kts | 242° |
| 2026-04-25 02:32 | -38.68094 | -65.65284 | 34148 ft | 420 kts | 242° |
| 2026-04-25 02:33 | -38.71172 | -65.71633 | 34143 ft | 420 kts | 242° |
| 2026-04-25 02:33 | -38.74240 | -65.77986 | 34143 ft | 419 kts | 242° |
| 2026-04-25 02:34 | -38.77283 | -65.84295 | 34137 ft | 418 kts | 242° |
| 2026-04-25 02:34 | -38.80337 | -65.90638 | 34133 ft | 418 kts | 242° |
| 2026-04-25 02:35 | -38.83387 | -65.96988 | 34135 ft | 418 kts | 243° |
| 2026-04-25 02:35 | -38.86442 | -66.03360 | 34127 ft | 419 kts | 243° |
| 2026-04-25 02:36 | -38.89498 | -66.09744 | 34129 ft | 420 kts | 243° |
| 2026-04-25 02:36 | -38.92043 | -66.15061 | 34129 ft | 420 kts | 243° |
| 2026-04-25 02:37 | -38.95579 | -66.22505 | 34131 ft | 420 kts | 243° |
| 2026-04-25 02:37 | -38.98620 | -66.28921 | 34141 ft | 421 kts | 243° |
| 2026-04-25 02:38 | -39.01171 | -66.34297 | 34138 ft | 421 kts | 243° |
| 2026-04-25 02:38 | -39.04213 | -66.40727 | 34140 ft | 421 kts | 243° |
| 2026-04-25 02:39 | -39.07230 | -66.47121 | 34133 ft | 420 kts | 243° |
| 2026-04-25 02:39 | -39.10263 | -66.53552 | 34137 ft | 420 kts | 243° |
| 2026-04-25 02:40 | -39.13287 | -66.60005 | 34155 ft | 420 kts | 243° |
| 2026-04-25 02:40 | -39.16295 | -66.66430 | 34137 ft | 417 kts | 243° |
| 2026-04-25 02:41 | -39.19285 | -66.72828 | 34135 ft | 417 kts | 243° |
| 2026-04-25 02:41 | -39.22280 | -66.79230 | 34139 ft | 417 kts | 243° |
| 2026-04-25 02:42 | -39.25274 | -66.85649 | 34142 ft | 418 kts | 243° |
| 2026-04-25 02:42 | -39.28259 | -66.92077 | 34171 ft | 418 kts | 243° |
| 2026-04-25 02:43 | -39.31242 | -66.98514 | 34162 ft | 417 kts | 243° |
| 2026-04-25 02:43 | -39.34224 | -67.04953 | 34162 ft | 417 kts | 243° |
| 2026-04-25 02:44 | -39.37196 | -67.11382 | 34158 ft | 417 kts | 243° |
| 2026-04-25 02:44 | -39.40161 | -67.17816 | 34163 ft | 417 kts | 243° |
| 2026-04-25 02:45 | -39.43126 | -67.24257 | 34177 ft | 416 kts | 243° |
| 2026-04-25 02:45 | -39.46079 | -67.30689 | 34175 ft | 416 kts | 243° |
| 2026-04-25 02:46 | -39.49033 | -67.37135 | 34172 ft | 416 kts | 243° |
| 2026-04-25 02:46 | -39.51977 | -67.43565 | 34176 ft | 415 kts | 243° |
| 2026-04-25 02:47 | -39.54908 | -67.49972 | 34155 ft | 412 kts | 243° |
| 2026-04-25 02:47 | -39.57831 | -67.56386 | 34189 ft | 412 kts | 243° |
| 2026-04-25 02:48 | -39.60740 | -67.62790 | 34185 ft | 411 kts | 243° |
| 2026-04-25 02:48 | -39.63636 | -67.69179 | 34190 ft | 411 kts | 243° |
| 2026-04-25 02:49 | -39.66527 | -67.75564 | 34189 ft | 410 kts | 243° |
| 2026-04-25 02:49 | -39.69419 | -67.81955 | 34195 ft | 410 kts | 243° |
| 2026-04-25 02:50 | -39.72304 | -67.88355 | 34197 ft | 410 kts | 243° |
| 2026-04-25 02:50 | -39.75174 | -67.94746 | 34202 ft | 410 kts | 243° |
| 2026-04-25 02:51 | -39.78038 | -68.01150 | 34200 ft | 410 kts | 243° |
| 2026-04-25 02:51 | -39.80889 | -68.07508 | 34202 ft | 410 kts | 243° |
| 2026-04-25 02:52 | -39.83937 | -68.13798 | 34204 ft | 412 kts | 240° |
| 2026-04-25 02:52 | -39.87156 | -68.19961 | 34215 ft | 412 kts | 239° |
| 2026-04-25 02:53 | -39.90368 | -68.26141 | 34239 ft | 411 kts | 240° |
| 2026-04-25 02:53 | -39.93522 | -68.32339 | 34226 ft | 410 kts | 240° |
| 2026-04-25 02:54 | -39.96653 | -68.38565 | 34228 ft | 410 kts | 240° |
| 2026-04-25 02:54 | -39.99763 | -68.44752 | 34225 ft | 410 kts | 240° |
| 2026-04-25 02:55 | -40.02889 | -68.50966 | 34233 ft | 410 kts | 240° |
| 2026-04-25 02:55 | -40.06015 | -68.57190 | 34229 ft | 410 kts | 240° |
| 2026-04-25 02:56 | -40.09135 | -68.63417 | 34237 ft | 410 kts | 240° |
| 2026-04-25 02:56 | -40.12264 | -68.69668 | 34236 ft | 410 kts | 240° |
| 2026-04-25 02:57 | -40.15381 | -68.75900 | 34243 ft | 409 kts | 241° |
| 2026-04-25 02:57 | -40.18489 | -68.82127 | 33865 ft | 406 kts | 240° |
| 2026-04-25 02:57 | -40.20035 | -68.85233 | 33000 ft | 408 kts | 240° |
| 2026-04-25 02:58 | -40.21584 | -68.88354 | 32102 ft | 411 kts | 240° |
| 2026-04-25 02:58 | -40.23145 | -68.91511 | 31297 ft | 414 kts | 240° |
| 2026-04-25 02:58 | -40.24690 | -68.94640 | 31016 ft | 417 kts | 240° |
| 2026-04-25 02:58 | -40.26274 | -68.97837 | 30763 ft | 420 kts | 240° |
| 2026-04-25 02:59 | -40.27869 | -69.01057 | 30526 ft | 422 kts | 240° |
| 2026-04-25 02:59 | -40.29468 | -69.04287 | 30272 ft | 423 kts | 239° |
| 2026-04-25 02:59 | -40.31074 | -69.07529 | 29984 ft | 425 kts | 239° |
| 2026-04-25 02:59 | -40.32683 | -69.10781 | 29694 ft | 426 kts | 239° |
| 2026-04-25 03:00 | -40.34294 | -69.14043 | 29416 ft | 426 kts | 239° |
| 2026-04-25 03:00 | -40.35902 | -69.17307 | 29126 ft | 427 kts | 239° |
| 2026-04-25 03:00 | -40.37517 | -69.20588 | 28841 ft | 429 kts | 239° |
| 2026-04-25 03:00 | -40.39137 | -69.23891 | 28565 ft | 430 kts | 239° |
| 2026-04-25 03:01 | -40.40760 | -69.27198 | 28290 ft | 431 kts | 239° |
| 2026-04-25 03:01 | -40.42387 | -69.30511 | 28020 ft | 431 kts | 239° |
| 2026-04-25 03:01 | -40.43991 | -69.33776 | 27741 ft | 418 kts | 239° |
| 2026-04-25 03:01 | -40.45546 | -69.36941 | 27480 ft | 409 kts | 239° |
| 2026-04-25 03:02 | -40.47077 | -69.40066 | 27209 ft | 405 kts | 239° |
| 2026-04-25 03:02 | -40.48570 | -69.43121 | 26756 ft | 400 kts | 239° |
| 2026-04-25 03:02 | -40.50082 | -69.46219 | 26316 ft | 395 kts | 239° |
| 2026-04-25 03:02 | -40.51557 | -69.49239 | 26068 ft | 397 kts | 239° |
| 2026-04-25 03:03 | -40.53043 | -69.52291 | 25813 ft | 397 kts | 239° |
| 2026-04-25 03:03 | -40.54541 | -69.55372 | 25564 ft | 405 kts | 239° |
| 2026-04-25 03:03 | -40.56072 | -69.58529 | 25332 ft | 413 kts | 239° |
| 2026-04-25 03:03 | -40.57624 | -69.61729 | 25103 ft | 413 kts | 239° |
| 2026-04-25 03:04 | -40.59173 | -69.64917 | 24855 ft | 412 kts | 239° |
| 2026-04-25 03:04 | -40.60718 | -69.68094 | 24610 ft | 411 kts | 239° |
| 2026-04-25 03:04 | -40.62255 | -69.71262 | 24369 ft | 410 kts | 239° |
| 2026-04-25 03:05 | -40.65291 | -69.77542 | 23889 ft | 397 kts | 239° |
| 2026-04-25 03:05 | -40.66750 | -69.80570 | 23629 ft | 388 kts | 238° |
| 2026-04-25 03:05 | -40.68199 | -69.83577 | 23350 ft | 395 kts | 238° |
| 2026-04-25 03:05 | -40.69682 | -69.86658 | 23077 ft | 400 kts | 238° |
| 2026-04-25 03:06 | -40.71174 | -69.89760 | 22801 ft | 400 kts | 238° |
| 2026-04-25 03:06 | -40.72663 | -69.92853 | 22528 ft | 399 kts | 238° |
| 2026-04-25 03:06 | -40.74147 | -69.95935 | 22253 ft | 397 kts | 238° |
| 2026-04-25 03:06 | -40.75625 | -69.99014 | 21942 ft | 396 kts | 238° |
| 2026-04-25 03:07 | -40.77072 | -70.02036 | 21425 ft | 393 kts | 238° |
| 2026-04-25 03:07 | -40.78525 | -70.05076 | 20880 ft | 390 kts | 238° |
| 2026-04-25 03:07 | -40.79963 | -70.08087 | 20388 ft | 387 kts | 238° |
| 2026-04-25 03:07 | -40.81394 | -70.11085 | 20031 ft | 386 kts | 238° |
| 2026-04-25 03:08 | -40.82822 | -70.14077 | 19519 ft | 383 kts | 238° |
| 2026-04-25 03:08 | -40.84238 | -70.17043 | 18907 ft | 382 kts | 238° |
| 2026-04-25 03:08 | -40.85648 | -70.19994 | 18358 ft | 377 kts | 238° |
| 2026-04-25 03:08 | -40.87040 | -70.22908 | 17838 ft | 374 kts | 238° |
| 2026-04-25 03:09 | -40.88424 | -70.25809 | 17413 ft | 369 kts | 238° |
| 2026-04-25 03:09 | -40.89771 | -70.28637 | 17106 ft | 359 kts | 238° |
| 2026-04-25 03:09 | -40.91081 | -70.31395 | 16796 ft | 349 kts | 238° |
| 2026-04-25 03:09 | -40.92355 | -70.34080 | 16482 ft | 340 kts | 238° |
| 2026-04-25 03:10 | -40.93605 | -70.36717 | 15900 ft | 338 kts | 238° |
| 2026-04-25 03:10 | -40.94854 | -70.39360 | 15312 ft | 338 kts | 238° |
| 2026-04-25 03:10 | -40.96100 | -70.42000 | 14687 ft | 339 kts | 238° |
| 2026-04-25 03:10 | -40.97345 | -70.44591 | 14161 ft | 336 kts | 235° |
| 2026-04-25 03:11 | -40.98795 | -70.47010 | 13651 ft | 333 kts | 231° |
| 2026-04-25 03:11 | -41.00239 | -70.49341 | 13429 ft | 321 kts | 231° |
| 2026-04-25 03:11 | -41.01630 | -70.51597 | 13203 ft | 310 kts | 231° |
| 2026-04-25 03:11 | -41.02984 | -70.53790 | 12865 ft | 304 kts | 231° |
| 2026-04-25 03:12 | -41.04309 | -70.55935 | 12574 ft | 296 kts | 230° |
| 2026-04-25 03:12 | -41.05596 | -70.58020 | 12361 ft | 287 kts | 230° |
| 2026-04-25 03:12 | -41.06840 | -70.60036 | 12159 ft | 279 kts | 230° |
| 2026-04-25 03:12 | -41.08035 | -70.61978 | 11949 ft | 271 kts | 230° |
| 2026-04-25 03:13 | -41.09221 | -70.63905 | 11620 ft | 268 kts | 230° |
| 2026-04-25 03:13 | -41.10394 | -70.65810 | 11312 ft | 266 kts | 230° |
| 2026-04-25 03:13 | -41.11539 | -70.67676 | 11177 ft | 256 kts | 230° |
| 2026-04-25 03:13 | -41.12661 | -70.69509 | 10817 ft | 256 kts | 230° |
| 2026-04-25 03:14 | -41.13775 | -70.71326 | 10359 ft | 252 kts | 230° |
| 2026-04-25 03:14 | -41.14858 | -70.73090 | 10129 ft | 242 kts | 230° |
| 2026-04-25 03:14 | -41.15881 | -70.74759 | 9852 ft | 222 kts | 230° |
| 2026-04-25 03:14 | -41.16828 | -70.76308 | 9719 ft | 210 kts | 230° |
| 2026-04-25 03:15 | -41.17724 | -70.77770 | 9457 ft | 201 kts | 230° |
| 2026-04-25 03:15 | -41.18617 | -70.79228 | 8974 ft | 210 kts | 230° |
| 2026-04-25 03:15 | -41.19517 | -70.80702 | 8497 ft | 203 kts | 231° |
| 2026-04-25 03:15 | -41.20393 | -70.82141 | 8027 ft | 198 kts | 231° |
| 2026-04-25 03:16 | -41.21246 | -70.83537 | 7531 ft | 191 kts | 231° |
| 2026-04-25 03:16 | -41.22053 | -70.84855 | 7252 ft | 175 kts | 232° |
| 2026-04-25 03:16 | -41.22797 | -70.86069 | 7130 ft | 167 kts | 232° |
| 2026-04-25 03:16 | -41.23458 | -70.87327 | 7065 ft | 165 kts | 244° |
| 2026-04-25 03:17 | -41.23799 | -70.88731 | 6970 ft | 159 kts | 259° |
| 2026-04-25 03:17 | -41.23800 | -70.90194 | 6803 ft | 160 kts | 281° |
| 2026-04-25 03:17 | -41.23416 | -70.91593 | 6628 ft | 161 kts | 288° |
| 2026-04-25 03:17 | -41.22988 | -70.92962 | 6426 ft | 161 kts | 290° |
| 2026-04-25 03:18 | -41.22540 | -70.94311 | 6204 ft | 159 kts | 290° |
| 2026-04-25 03:18 | -41.22094 | -70.95624 | 5970 ft | 157 kts | 291° |
| 2026-04-25 03:18 | -41.21640 | -70.96946 | 5771 ft | 159 kts | 292° |
| 2026-04-25 03:18 | -41.21178 | -70.98287 | 5544 ft | 159 kts | 292° |
| 2026-04-25 03:19 | -41.20717 | -70.99621 | 5339 ft | 159 kts | 292° |
| 2026-04-25 03:19 | -41.20254 | -71.00959 | 5119 ft | 159 kts | 292° |
| 2026-04-25 03:19 | -41.19791 | -71.02298 | 4893 ft | 159 kts | 293° |
| 2026-04-25 03:19 | -41.19331 | -71.03626 | 4647 ft | 159 kts | 293° |
| 2026-04-25 03:20 | -41.19024 | -71.04511 | 4482 ft | 158 kts | 294° |
| 2026-04-25 03:20 | -41.18566 | -71.05834 | 4237 ft | 157 kts | 294° |
| 2026-04-25 03:20 | -41.18108 | -71.07154 | 4004 ft | 158 kts | 295° |
| 2026-04-25 03:20 | -41.17648 | -71.08478 | 3792 ft | 158 kts | 294° |
| 2026-04-25 03:21 | -41.17189 | -71.09802 | 3584 ft | 157 kts | 294° |
| 2026-04-25 03:21 | -41.16734 | -71.11114 | 3385 ft | 156 kts | 294° |
| 2026-04-25 03:21 | -41.16282 | -71.12416 | 3176 ft | 155 kts | 294° |
| 2026-04-25 03:21 | -41.15843 | -71.13703 | 2935 ft | 153 kts | 294° |
| 2026-04-25 03:22 | -41.15389 | -71.14971 | 2776 ft | 149 kts | 293° |
| 2026-04-25 03:22 | -41.14977 | -71.16144 | 2759 ft | 127 kts | 290° |
| 2026-04-25 03:22 | -41.14725 | -71.16900 | 2750 ft | 33 kts | 295° |
| 2026-04-25 03:22 | -41.14697 | -71.17005 | 2751 ft | 9 kts | 300° |
| 2026-04-25 03:23 | -41.14675 | -71.17024 | 2751 ft | 5 kts | 338° |